ADDS METAR Data

Data at: 1603 UTC 20 May 2018

METAR for:KSDL (Scottsdale Muni, AZ, US)
Text:KSDL 201553Z 16006KT 10SM CLR 28/01 A2989 RMK AO2 SLP094 T02780011
Temperature: 27.8°C ( 82°F)
Dewpoint: 1.1°C ( 34°F) [RH = 18%]
Pressure (altimeter):29.89 inches Hg (1012.3 mb) [Sea level pressure: 1009.4 mb]
Winds:from the SSE (160 degrees) at 7 MPH (6 knots; 3.1 m/s)
Visibility:10 or more sm (16+ km)
Ceiling:at least 12,000 feet AGL
Clouds:sky clear below 12,000 feet AGL